Aeroporto :
LOGIN :

Iscrizione | Disclaimer

   EN    FR    IT 

 










Sommario :    VFR   VFR Marginale   IFR   IFR Intensivo   IFR Molto Intensivo
Visibilità : 
Base nubi : 
>= 8 km
>= 3000ft
5 / 8 km
1000 / 3000 ft
1500m / 5 km
500 / 1000 ft
800 / 1500m
200 / 500 ft
< 800m
< 200 ft
Simboli :   Temporali  Nebbia  Neve Forte  Precipitazioni Forti  Vento > 20 kt
SIGMETs :   Varie  Temporali  Ghiacco  Turbolenza  Onda orograficha  Ceneri Vulcaniche






- Altitudine del aeroporto : 2945 ft
- Codice IATA : RGS


LEBG - Burgos

ULTIMO METAR :
  • 290700Z AUTO VRB01KT CAVOK 15/09 Q1020

METARs OBSOLETI :
  • 290630Z AUTO VRB01KT CAVOK 13/09 Q1021
  • 290600Z AUTO VRB02KT CAVOK 11/08 Q1021
  • 290530Z AUTO 05003KT CAVOK 09/07 Q1021
  • 290500Z AUTO VRB01KT CAVOK 08/07 Q1021
  • 290430Z AUTO 00000KT CAVOK 09/07 Q1021

TAF TAF LEBG
Valido dal 29 a 06 ore il 29 a 15 ore UTC


290500Z 2906/2915 VRB04KT CAVOK
BECMG 2908/2910 06010KT
PROB30
TEMPO 2914/2915 FEW035TCU



MetMap, La meteo Aeronautica in un colpo d'occhio ! - Copyright ORBIFLY Dicembre 2007 - Disclaimer

ORBIFLY MET'MAP TEAM :

Programmazione e sviluppo : Alexandra Zaïnal
Concezione : Baudouin d'Aumeries
Aiuto per la programmazione : Marc-Olivier Méhu
Supporto tecnico e logistico : Manuel Goepfert
Aiuto per la traduzione : Arnaldo La Scala

Contatto : metmap@orbifly.com




FONTI E CREDITI :

   NOAA